Terminal Aerodrome Forecast
Issued by NWS Grand Rapids, MI

Home | Current Version | Previous Version | Text Only | Print | Product List | Glossary On
Versions: 1 2 3 4 5 6 7 8 9 10 11 12 13 14 15
000
FTUS43 KGRR 291600 AAA
TAFGRR
TAF AMD
KGRR 291616Z 2916/3012 32010KT 2SM -SN OVC020
      TEMPO 2916/2917 1/2SM SN OVC010
     FM291700 32012G20KT 5SM -SN OVC015=

USA.gov is the U.S. government's official web portal to all federal, state and local government web resources and services.